sensor_id;sensor_type;location;lat;lon;timestamp;P1;durP1;ratioP1;P2;durP2;ratioP2
14472;SDS011;7322;50.872;4.386;2024-01-15T00:01:55;5.47;;;4.97;;
14472;SDS011;7322;50.872;4.386;2024-01-15T00:04:22;5.40;;;4.90;;
14472;SDS011;7322;50.872;4.386;2024-01-15T00:06:57;5.27;;;4.77;;
14472;SDS011;7322;50.872;4.386;2024-01-15T00:09:24;5.63;;;5.07;;
14472;SDS011;7322;50.872;4.386;2024-01-15T00:11:52;4.70;;;4.30;;
14472;SDS011;7322;50.872;4.386;2024-01-15T00:14:19;5.53;;;4.80;;
14472;SDS011;7322;50.872;4.386;2024-01-15T00:16:46;5.53;;;4.93;;
14472;SDS011;7322;50.872;4.386;2024-01-15T00:19:15;5.57;;;4.67;;
14472;SDS011;7322;50.872;4.386;2024-01-15T00:21:42;5.60;;;4.87;;
14472;SDS011;7322;50.872;4.386;2024-01-15T00:24:14;5.80;;;4.80;;
14472;SDS011;7322;50.872;4.386;2024-01-15T00:26:41;5.47;;;4.97;;
14472;SDS011;7322;50.872;4.386;2024-01-15T00:29:08;5.20;;;4.70;;
14472;SDS011;7322;50.872;4.386;2024-01-15T00:31:36;5.40;;;4.90;;
14472;SDS011;7322;50.872;4.386;2024-01-15T00:34:02;5.90;;;4.80;;
14472;SDS011;7322;50.872;4.386;2024-01-15T00:36:29;6.23;;;4.80;;
14472;SDS011;7322;50.872;4.386;2024-01-15T00:38:56;5.17;;;4.67;;
14472;SDS011;7322;50.872;4.386;2024-01-15T00:41:27;5.10;;;4.60;;
14472;SDS011;7322;50.872;4.386;2024-01-15T00:43:54;4.63;;;4.20;;
14472;SDS011;7322;50.872;4.386;2024-01-15T00:46:21;5.30;;;4.80;;
14472;SDS011;7322;50.872;4.386;2024-01-15T00:48:48;5.37;;;4.80;;
14472;SDS011;7322;50.872;4.386;2024-01-15T00:51:15;5.30;;;4.80;;
14472;SDS011;7322;50.872;4.386;2024-01-15T00:53:42;4.83;;;4.30;;
14472;SDS011;7322;50.872;4.386;2024-01-15T00:56:09;5.83;;;4.90;;
14472;SDS011;7322;50.872;4.386;2024-01-15T00:58:38;5.00;;;4.50;;
14472;SDS011;7322;50.872;4.386;2024-01-15T01:01:05;5.17;;;4.67;;
14472;SDS011;7322;50.872;4.386;2024-01-15T01:03:33;5.50;;;4.90;;
14472;SDS011;7322;50.872;4.386;2024-01-15T01:06:00;5.60;;;4.30;;
14472;SDS011;7322;50.872;4.386;2024-01-15T01:08:27;5.10;;;4.60;;
14472;SDS011;7322;50.872;4.386;2024-01-15T01:10:55;6.17;;;5.20;;
14472;SDS011;7322;50.872;4.386;2024-01-15T01:13:23;5.23;;;4.73;;
14472;SDS011;7322;50.872;4.386;2024-01-15T01:15:51;5.00;;;4.50;;
14472;SDS011;7322;50.872;4.386;2024-01-15T01:18:18;4.90;;;4.40;;
14472;SDS011;7322;50.872;4.386;2024-01-15T01:20:45;4.83;;;4.33;;
14472;SDS011;7322;50.872;4.386;2024-01-15T01:23:12;4.80;;;4.30;;
14472;SDS011;7322;50.872;4.386;2024-01-15T01:25:39;4.73;;;4.30;;
14472;SDS011;7322;50.872;4.386;2024-01-15T01:28:06;5.60;;;4.47;;
14472;SDS011;7322;50.872;4.386;2024-01-15T01:30:32;4.97;;;4.47;;
14472;SDS011;7322;50.872;4.386;2024-01-15T01:33:01;5.10;;;4.60;;
14472;SDS011;7322;50.872;4.386;2024-01-15T01:35:28;4.60;;;4.20;;
14472;SDS011;7322;50.872;4.386;2024-01-15T01:37:55;4.97;;;4.53;;
14472;SDS011;7322;50.872;4.386;2024-01-15T01:40:22;4.77;;;4.37;;
14472;SDS011;7322;50.872;4.386;2024-01-15T01:42:49;4.80;;;4.40;;
14472;SDS011;7322;50.872;4.386;2024-01-15T01:45:16;4.50;;;4.10;;
14472;SDS011;7322;50.872;4.386;2024-01-15T01:47:43;4.60;;;4.20;;
14472;SDS011;7322;50.872;4.386;2024-01-15T01:50:10;4.77;;;4.27;;
14472;SDS011;7322;50.872;4.386;2024-01-15T01:52:39;5.20;;;4.70;;
14472;SDS011;7322;50.872;4.386;2024-01-15T01:55:07;5.00;;;4.27;;
14472;SDS011;7322;50.872;4.386;2024-01-15T01:57:37;4.97;;;4.47;;
14472;SDS011;7322;50.872;4.386;2024-01-15T02:00:05;4.20;;;3.80;;
14472;SDS011;7322;50.872;4.386;2024-01-15T02:02:34;4.30;;;3.90;;
14472;SDS011;7322;50.872;4.386;2024-01-15T02:05:01;4.40;;;4.00;;
14472;SDS011;7322;50.872;4.386;2024-01-15T02:07:34;4.63;;;4.23;;
14472;SDS011;7322;50.872;4.386;2024-01-15T02:10:01;4.23;;;3.83;;
14472;SDS011;7322;50.872;4.386;2024-01-15T02:12:28;4.90;;;4.40;;
14472;SDS011;7322;50.872;4.386;2024-01-15T02:14:55;4.63;;;4.20;;
14472;SDS011;7322;50.872;4.386;2024-01-15T02:17:22;4.40;;;4.00;;
14472;SDS011;7322;50.872;4.386;2024-01-15T02:19:49;5.33;;;4.50;;
14472;SDS011;7322;50.872;4.386;2024-01-15T02:22:16;4.73;;;4.23;;
14472;SDS011;7322;50.872;4.386;2024-01-15T02:24:44;4.77;;;4.10;;
14472;SDS011;7322;50.872;4.386;2024-01-15T02:27:12;4.90;;;4.40;;
14472;SDS011;7322;50.872;4.386;2024-01-15T02:29:39;4.37;;;3.97;;
14472;SDS011;7322;50.872;4.386;2024-01-15T02:32:06;4.40;;;4.00;;
14472;SDS011;7322;50.872;4.386;2024-01-15T02:34:35;4.80;;;4.30;;
14472;SDS011;7322;50.872;4.386;2024-01-15T02:37:03;4.40;;;3.90;;
14472;SDS011;7322;50.872;4.386;2024-01-15T02:39:30;4.23;;;3.83;;
14472;SDS011;7322;50.872;4.386;2024-01-15T02:41:58;4.37;;;3.90;;
14472;SDS011;7322;50.872;4.386;2024-01-15T02:44:25;4.57;;;4.13;;
14472;SDS011;7322;50.872;4.386;2024-01-15T02:46:52;4.80;;;4.30;;
14472;SDS011;7322;50.872;4.386;2024-01-15T02:49:19;4.30;;;3.90;;
14472;SDS011;7322;50.872;4.386;2024-01-15T02:51:46;4.20;;;3.63;;
14472;SDS011;7322;50.872;4.386;2024-01-15T02:54:13;4.23;;;3.83;;
14472;SDS011;7322;50.872;4.386;2024-01-15T02:56:40;4.07;;;3.67;;
14472;SDS011;7322;50.872;4.386;2024-01-15T02:59:09;3.70;;;3.40;;
14472;SDS011;7322;50.872;4.386;2024-01-15T03:01:36;4.07;;;3.67;;
14472;SDS011;7322;50.872;4.386;2024-01-15T03:04:03;3.80;;;3.40;;
14472;SDS011;7322;50.872;4.386;2024-01-15T03:06:30;3.83;;;3.40;;
14472;SDS011;7322;50.872;4.386;2024-01-15T03:08:57;4.30;;;3.73;;
14472;SDS011;7322;50.872;4.386;2024-01-15T03:11:24;3.60;;;3.30;;
14472;SDS011;7322;50.872;4.386;2024-01-15T03:13:51;3.87;;;3.50;;
14472;SDS011;7322;50.872;4.386;2024-01-15T03:16:20;3.70;;;3.30;;
14472;SDS011;7322;50.872;4.386;2024-01-15T03:18:47;3.50;;;3.20;;
14472;SDS011;7322;50.872;4.386;2024-01-15T03:21:14;3.73;;;3.33;;
14472;SDS011;7322;50.872;4.386;2024-01-15T03:23:40;3.93;;;3.27;;
14472;SDS011;7322;50.872;4.386;2024-01-15T03:26:07;3.33;;;3.03;;
14472;SDS011;7322;50.872;4.386;2024-01-15T03:28:34;3.50;;;3.20;;
14472;SDS011;7322;50.872;4.386;2024-01-15T03:31:02;3.53;;;3.23;;
14472;SDS011;7322;50.872;4.386;2024-01-15T03:33:34;4.13;;;3.73;;
14472;SDS011;7322;50.872;4.386;2024-01-15T03:36:01;3.80;;;3.10;;
14472;SDS011;7322;50.872;4.386;2024-01-15T03:38:28;3.57;;;3.27;;
14472;SDS011;7322;50.872;4.386;2024-01-15T03:40:55;3.80;;;3.17;;
14472;SDS011;7322;50.872;4.386;2024-01-15T03:43:22;3.83;;;3.30;;
14472;SDS011;7322;50.872;4.386;2024-01-15T03:45:49;4.03;;;3.20;;
14472;SDS011;7322;50.872;4.386;2024-01-15T03:48:16;3.43;;;2.97;;
14472;SDS011;7322;50.872;4.386;2024-01-15T03:50:44;3.67;;;3.37;;
14472;SDS011;7322;50.872;4.386;2024-01-15T03:53:11;3.33;;;3.00;;
14472;SDS011;7322;50.872;4.386;2024-01-15T03:55:38;3.33;;;2.83;;
14472;SDS011;7322;50.872;4.386;2024-01-15T03:58:05;3.00;;;2.70;;
14472;SDS011;7322;50.872;4.386;2024-01-15T04:00:32;3.30;;;3.00;;
14472;SDS011;7322;50.872;4.386;2024-01-15T04:02:59;3.03;;;2.73;;
14472;SDS011;7322;50.872;4.386;2024-01-15T04:05:26;3.50;;;3.20;;
14472;SDS011;7322;50.872;4.386;2024-01-15T04:07:54;3.27;;;2.97;;
14472;SDS011;7322;50.872;4.386;2024-01-15T04:10:21;3.10;;;2.80;;
14472;SDS011;7322;50.872;4.386;2024-01-15T04:12:48;2.80;;;2.47;;
14472;SDS011;7322;50.872;4.386;2024-01-15T04:15:15;3.30;;;2.97;;
14472;SDS011;7322;50.872;4.386;2024-01-15T04:17:44;3.83;;;3.43;;
14472;SDS011;7322;50.872;4.386;2024-01-15T04:20:11;3.30;;;3.00;;
14472;SDS011;7322;50.872;4.386;2024-01-15T04:22:38;3.20;;;2.90;;
14472;SDS011;7322;50.872;4.386;2024-01-15T04:25:07;3.30;;;3.00;;
14472;SDS011;7322;50.872;4.386;2024-01-15T04:27:34;3.20;;;2.90;;
14472;SDS011;7322;50.872;4.386;2024-01-15T04:30:01;4.03;;;2.87;;
14472;SDS011;7322;50.872;4.386;2024-01-15T04:32:28;3.60;;;3.07;;
14472;SDS011;7322;50.872;4.386;2024-01-15T04:34:55;3.10;;;2.80;;
14472;SDS011;7322;50.872;4.386;2024-01-15T04:37:22;3.10;;;2.80;;
14472;SDS011;7322;50.872;4.386;2024-01-15T04:39:50;3.00;;;2.70;;
14472;SDS011;7322;50.872;4.386;2024-01-15T04:42:21;2.73;;;2.53;;
14472;SDS011;7322;50.872;4.386;2024-01-15T04:44:48;3.37;;;2.80;;
14472;SDS011;7322;50.872;4.386;2024-01-15T04:47:15;2.90;;;2.60;;
14472;SDS011;7322;50.872;4.386;2024-01-15T04:49:42;3.20;;;2.90;;
14472;SDS011;7322;50.872;4.386;2024-01-15T04:52:15;3.37;;;2.90;;
14472;SDS011;7322;50.872;4.386;2024-01-15T04:54:43;2.73;;;2.53;;
14472;SDS011;7322;50.872;4.386;2024-01-15T04:57:10;2.90;;;2.60;;
14472;SDS011;7322;50.872;4.386;2024-01-15T04:59:38;2.80;;;2.60;;
14472;SDS011;7322;50.872;4.386;2024-01-15T05:02:06;2.90;;;2.60;;
14472;SDS011;7322;50.872;4.386;2024-01-15T05:04:32;3.50;;;2.87;;
14472;SDS011;7322;50.872;4.386;2024-01-15T05:06:59;3.07;;;2.77;;
14472;SDS011;7322;50.872;4.386;2024-01-15T05:09:26;3.10;;;2.80;;
14472;SDS011;7322;50.872;4.386;2024-01-15T05:11:53;2.97;;;2.40;;
14472;SDS011;7322;50.872;4.386;2024-01-15T05:14:20;2.70;;;2.50;;
14472;SDS011;7322;50.872;4.386;2024-01-15T05:16:49;2.83;;;2.57;;
14472;SDS011;7322;50.872;4.386;2024-01-15T05:19:16;2.50;;;2.30;;
14472;SDS011;7322;50.872;4.386;2024-01-15T05:21:44;2.80;;;2.60;;
14472;SDS011;7322;50.872;4.386;2024-01-15T05:24:12;2.90;;;2.60;;
14472;SDS011;7322;50.872;4.386;2024-01-15T05:26:40;2.70;;;2.40;;
14472;SDS011;7322;50.872;4.386;2024-01-15T05:29:07;2.70;;;2.50;;
14472;SDS011;7322;50.872;4.386;2024-01-15T05:31:35;2.40;;;2.13;;
14472;SDS011;7322;50.872;4.386;2024-01-15T05:34:04;3.53;;;2.90;;
14472;SDS011;7322;50.872;4.386;2024-01-15T05:36:31;2.53;;;2.33;;
14472;SDS011;7322;50.872;4.386;2024-01-15T05:38:57;2.50;;;2.30;;
14472;SDS011;7322;50.872;4.386;2024-01-15T05:41:24;2.50;;;2.30;;
14472;SDS011;7322;50.872;4.386;2024-01-15T05:43:51;3.03;;;2.47;;
14472;SDS011;7322;50.872;4.386;2024-01-15T05:46:18;2.50;;;2.30;;
14472;SDS011;7322;50.872;4.386;2024-01-15T05:48:45;2.60;;;2.30;;
14472;SDS011;7322;50.872;4.386;2024-01-15T05:51:14;3.37;;;2.43;;
14472;SDS011;7322;50.872;4.386;2024-01-15T05:53:41;2.40;;;2.20;;
14472;SDS011;7322;50.872;4.386;2024-01-15T05:56:09;2.43;;;2.23;;
14472;SDS011;7322;50.872;4.386;2024-01-15T05:58:36;3.27;;;2.40;;
14472;SDS011;7322;50.872;4.386;2024-01-15T06:01:04;2.77;;;2.27;;
14472;SDS011;7322;50.872;4.386;2024-01-15T06:03:31;2.47;;;2.07;;
14472;SDS011;7322;50.872;4.386;2024-01-15T06:05:58;3.30;;;2.40;;
14472;SDS011;7322;50.872;4.386;2024-01-15T06:08:27;2.40;;;2.20;;
14472;SDS011;7322;50.872;4.386;2024-01-15T06:10:55;2.87;;;2.30;;
14472;SDS011;7322;50.872;4.386;2024-01-15T06:13:22;2.97;;;2.20;;
14472;SDS011;7322;50.872;4.386;2024-01-15T06:16:11;2.97;;;2.20;;
14472;SDS011;7322;50.872;4.386;2024-01-15T06:21:35;2.27;;;2.07;;
14472;SDS011;7322;50.872;4.386;2024-01-15T06:26:34;2.33;;;2.10;;
14472;SDS011;7322;50.872;4.386;2024-01-15T06:29:07;3.07;;;2.00;;
14472;SDS011;7322;50.872;4.386;2024-01-15T06:31:35;2.83;;;2.03;;
14472;SDS011;7322;50.872;4.386;2024-01-15T06:34:02;2.60;;;2.07;;
14472;SDS011;7322;50.872;4.386;2024-01-15T06:36:29;2.40;;;2.20;;
14472;SDS011;7322;50.872;4.386;2024-01-15T06:38:56;2.17;;;1.97;;
14472;SDS011;7322;50.872;4.386;2024-01-15T06:41:24;4.77;;;2.23;;
14472;SDS011;7322;50.872;4.386;2024-01-15T06:43:51;2.70;;;2.27;;
14472;SDS011;7322;50.872;4.386;2024-01-15T06:46:20;3.37;;;1.77;;
14472;SDS011;7322;50.872;4.386;2024-01-15T06:48:47;4.47;;;2.23;;
14472;SDS011;7322;50.872;4.386;2024-01-15T06:51:15;2.30;;;2.00;;
14472;SDS011;7322;50.872;4.386;2024-01-15T06:53:42;3.10;;;2.00;;
14472;SDS011;7322;50.872;4.386;2024-01-15T06:56:09;4.00;;;1.93;;
14472;SDS011;7322;50.872;4.386;2024-01-15T06:58:38;2.97;;;2.00;;
14472;SDS011;7322;50.872;4.386;2024-01-15T07:01:05;2.80;;;1.90;;
14472;SDS011;7322;50.872;4.386;2024-01-15T07:03:33;2.93;;;2.00;;
14472;SDS011;7322;50.872;4.386;2024-01-15T07:06:00;2.57;;;1.90;;
14472;SDS011;7322;50.872;4.386;2024-01-15T07:08:27;2.67;;;1.70;;
14472;SDS011;7322;50.872;4.386;2024-01-15T07:10:54;3.67;;;2.37;;
14472;SDS011;7322;50.872;4.386;2024-01-15T07:13:25;2.07;;;1.80;;
14472;SDS011;7322;50.872;4.386;2024-01-15T07:15:56;2.63;;;1.60;;
14472;SDS011;7322;50.872;4.386;2024-01-15T07:18:34;3.13;;;2.03;;
14472;SDS011;7322;50.872;4.386;2024-01-15T07:21:04;4.10;;;2.00;;
14472;SDS011;7322;50.872;4.386;2024-01-15T07:23:44;2.40;;;1.90;;
14472;SDS011;7322;50.872;4.386;2024-01-15T07:26:13;2.53;;;1.83;;
14472;SDS011;7322;50.872;4.386;2024-01-15T07:28:49;2.60;;;1.80;;
14472;SDS011;7322;50.872;4.386;2024-01-15T07:31:18;2.77;;;2.00;;
14472;SDS011;7322;50.872;4.386;2024-01-15T07:33:47;3.97;;;1.83;;
14472;SDS011;7322;50.872;4.386;2024-01-15T07:36:21;5.03;;;1.80;;
14472;SDS011;7322;50.872;4.386;2024-01-15T07:44:14;2.70;;;1.80;;
14472;SDS011;7322;50.872;4.386;2024-01-15T07:46:50;1.70;;;1.60;;
14472;SDS011;7322;50.872;4.386;2024-01-15T07:49:20;2.20;;;1.83;;
14472;SDS011;7322;50.872;4.386;2024-01-15T07:51:48;3.07;;;1.83;;
14472;SDS011;7322;50.872;4.386;2024-01-15T07:54:21;1.77;;;1.57;;
14472;SDS011;7322;50.872;4.386;2024-01-15T07:56:57;2.00;;;1.70;;
14472;SDS011;7322;50.872;4.386;2024-01-15T07:59:26;2.73;;;2.03;;
14472;SDS011;7322;50.872;4.386;2024-01-15T08:02:07;3.50;;;2.07;;
14472;SDS011;7322;50.872;4.386;2024-01-15T08:04:41;3.60;;;2.00;;
14472;SDS011;7322;50.872;4.386;2024-01-15T08:07:08;2.73;;;2.00;;
14472;SDS011;7322;50.872;4.386;2024-01-15T08:09:36;4.47;;;1.90;;
14472;SDS011;7322;50.872;4.386;2024-01-15T08:12:03;5.63;;;1.97;;
14472;SDS011;7322;50.872;4.386;2024-01-15T08:14:32;4.13;;;1.90;;
14472;SDS011;7322;50.872;4.386;2024-01-15T08:20:07;3.87;;;1.70;;
14472;SDS011;7322;50.872;4.386;2024-01-15T08:22:36;3.70;;;1.93;;
14472;SDS011;7322;50.872;4.386;2024-01-15T08:25:07;5.30;;;1.97;;
14472;SDS011;7322;50.872;4.386;2024-01-15T08:27:44;4.07;;;1.80;;
14472;SDS011;7322;50.872;4.386;2024-01-15T08:30:24;3.40;;;1.70;;
14472;SDS011;7322;50.872;4.386;2024-01-15T08:32:52;4.10;;;1.90;;
14472;SDS011;7322;50.872;4.386;2024-01-15T08:35:21;4.77;;;1.60;;
14472;SDS011;7322;50.872;4.386;2024-01-15T08:37:49;3.60;;;1.70;;
14472;SDS011;7322;50.872;4.386;2024-01-15T08:40:17;2.57;;;1.47;;
14472;SDS011;7322;50.872;4.386;2024-01-15T08:45:31;5.07;;;1.90;;
14472;SDS011;7322;50.872;4.386;2024-01-15T08:51:02;2.90;;;1.70;;
14472;SDS011;7322;50.872;4.386;2024-01-15T08:53:30;2.70;;;1.43;;
14472;SDS011;7322;50.872;4.386;2024-01-15T08:56:04;4.80;;;1.70;;
14472;SDS011;7322;50.872;4.386;2024-01-15T08:58:31;4.03;;;1.80;;
14472;SDS011;7322;50.872;4.386;2024-01-15T09:01:00;2.40;;;1.50;;
14472;SDS011;7322;50.872;4.386;2024-01-15T09:03:29;5.27;;;1.77;;
14472;SDS011;7322;50.872;4.386;2024-01-15T09:05:57;2.33;;;1.40;;
14472;SDS011;7322;50.872;4.386;2024-01-15T09:08:31;3.87;;;1.60;;
14472;SDS011;7322;50.872;4.386;2024-01-15T09:11:09;3.43;;;1.47;;
14472;SDS011;7322;50.872;4.386;2024-01-15T09:16:29;5.17;;;1.40;;
14472;SDS011;7322;50.872;4.386;2024-01-15T09:18:56;3.43;;;1.53;;
14472;SDS011;7322;50.872;4.386;2024-01-15T09:21:39;3.60;;;1.70;;
14472;SDS011;7322;50.872;4.386;2024-01-15T09:24:08;3.20;;;1.77;;
14472;SDS011;7322;50.872;4.386;2024-01-15T09:26:35;4.37;;;1.40;;
14472;SDS011;7322;50.872;4.386;2024-01-15T09:29:04;3.70;;;1.67;;
14472;SDS011;7322;50.872;4.386;2024-01-15T09:31:37;4.13;;;1.67;;
14472;SDS011;7322;50.872;4.386;2024-01-15T09:34:05;2.93;;;1.37;;
14472;SDS011;7322;50.872;4.386;2024-01-15T09:36:38;2.60;;;1.50;;
14472;SDS011;7322;50.872;4.386;2024-01-15T09:39:11;3.53;;;1.57;;
14472;SDS011;7322;50.872;4.386;2024-01-15T09:41:48;2.10;;;1.10;;
14472;SDS011;7322;50.872;4.386;2024-01-15T09:50:03;2.07;;;1.40;;
14472;SDS011;7322;50.872;4.386;2024-01-15T09:52:37;3.87;;;1.60;;
14472;SDS011;7322;50.872;4.386;2024-01-15T09:55:07;3.53;;;1.60;;
14472;SDS011;7322;50.872;4.386;2024-01-15T09:57:40;2.30;;;1.27;;
14472;SDS011;7322;50.872;4.386;2024-01-15T10:02:38;4.37;;;1.40;;
14472;SDS011;7322;50.872;4.386;2024-01-15T10:05:07;2.07;;;1.33;;
14472;SDS011;7322;50.872;4.386;2024-01-15T10:07:47;2.97;;;1.53;;
14472;SDS011;7322;50.872;4.386;2024-01-15T10:10:17;4.17;;;1.43;;
14472;SDS011;7322;50.872;4.386;2024-01-15T10:12:44;2.80;;;1.33;;
14472;SDS011;7322;50.872;4.386;2024-01-15T10:15:12;3.00;;;1.30;;
14472;SDS011;7322;50.872;4.386;2024-01-15T10:17:39;2.00;;;1.17;;
14472;SDS011;7322;50.872;4.386;2024-01-15T10:20:07;1.97;;;1.17;;
14472;SDS011;7322;50.872;4.386;2024-01-15T10:22:39;3.43;;;1.30;;
14472;SDS011;7322;50.872;4.386;2024-01-15T10:25:09;2.13;;;1.30;;
14472;SDS011;7322;50.872;4.386;2024-01-15T10:27:38;2.97;;;1.50;;
14472;SDS011;7322;50.872;4.386;2024-01-15T10:30:07;3.00;;;1.40;;
14472;SDS011;7322;50.872;4.386;2024-01-15T10:32:35;1.80;;;1.20;;
14472;SDS011;7322;50.872;4.386;2024-01-15T10:35:09;1.97;;;1.30;;
14472;SDS011;7322;50.872;4.386;2024-01-15T10:37:43;2.20;;;1.27;;
14472;SDS011;7322;50.872;4.386;2024-01-15T10:40:10;2.23;;;1.20;;
14472;SDS011;7322;50.872;4.386;2024-01-15T10:42:42;2.10;;;1.20;;
14472;SDS011;7322;50.872;4.386;2024-01-15T10:45:10;3.23;;;1.47;;
14472;SDS011;7322;50.872;4.386;2024-01-15T10:47:39;2.17;;;1.33;;
14472;SDS011;7322;50.872;4.386;2024-01-15T10:56:23;2.13;;;1.20;;
14472;SDS011;7322;50.872;4.386;2024-01-15T10:59:09;2.83;;;1.37;;
14472;SDS011;7322;50.872;4.386;2024-01-15T11:01:39;1.20;;;1.00;;
14472;SDS011;7322;50.872;4.386;2024-01-15T11:04:07;2.23;;;1.10;;
14472;SDS011;7322;50.872;4.386;2024-01-15T11:06:41;2.20;;;1.00;;
14472;SDS011;7322;50.872;4.386;2024-01-15T11:09:11;2.50;;;1.20;;
14472;SDS011;7322;50.872;4.386;2024-01-15T11:11:40;5.03;;;1.40;;
14472;SDS011;7322;50.872;4.386;2024-01-15T11:14:10;2.17;;;1.00;;
14472;SDS011;7322;50.872;4.386;2024-01-15T11:16:56;1.97;;;1.10;;
14472;SDS011;7322;50.872;4.386;2024-01-15T11:19:24;1.23;;;1.00;;
14472;SDS011;7322;50.872;4.386;2024-01-15T11:21:52;2.60;;;1.30;;
14472;SDS011;7322;50.872;4.386;2024-01-15T11:24:37;3.77;;;1.20;;
14472;SDS011;7322;50.872;4.386;2024-01-15T11:27:06;3.27;;;1.03;;
14472;SDS011;7322;50.872;4.386;2024-01-15T11:29:36;2.67;;;1.20;;
14472;SDS011;7322;50.872;4.386;2024-01-15T11:32:04;1.50;;;1.00;;
14472;SDS011;7322;50.872;4.386;2024-01-15T11:34:50;1.37;;;1.20;;
14472;SDS011;7322;50.872;4.386;2024-01-15T11:37:19;1.60;;;1.20;;
14472;SDS011;7322;50.872;4.386;2024-01-15T11:39:49;1.07;;;0.90;;
14472;SDS011;7322;50.872;4.386;2024-01-15T11:42:21;1.33;;;1.00;;
14472;SDS011;7322;50.872;4.386;2024-01-15T11:44:50;2.03;;;1.23;;
14472;SDS011;7322;50.872;4.386;2024-01-15T11:47:36;1.70;;;1.10;;
14472;SDS011;7322;50.872;4.386;2024-01-15T11:50:24;1.30;;;0.97;;
14472;SDS011;7322;50.872;4.386;2024-01-15T11:52:56;1.67;;;1.00;;
14472;SDS011;7322;50.872;4.386;2024-01-15T11:55:27;1.33;;;1.00;;
14472;SDS011;7322;50.872;4.386;2024-01-15T11:58:01;2.83;;;1.10;;
14472;SDS011;7322;50.872;4.386;2024-01-15T12:00:33;2.80;;;1.10;;
14472;SDS011;7322;50.872;4.386;2024-01-15T12:06:24;1.47;;;0.80;;
14472;SDS011;7322;50.872;4.386;2024-01-15T12:09:05;5.40;;;1.20;;
14472;SDS011;7322;50.872;4.386;2024-01-15T12:14:39;4.80;;;1.10;;
14472;SDS011;7322;50.872;4.386;2024-01-15T12:17:19;2.67;;;1.17;;
14472;SDS011;7322;50.872;4.386;2024-01-15T12:19:56;1.30;;;0.80;;
14472;SDS011;7322;50.872;4.386;2024-01-15T12:22:30;2.17;;;1.13;;
14472;SDS011;7322;50.872;4.386;2024-01-15T12:24:58;3.07;;;0.90;;
14472;SDS011;7322;50.872;4.386;2024-01-15T12:27:26;1.30;;;0.90;;
14472;SDS011;7322;50.872;4.386;2024-01-15T12:29:55;2.00;;;1.13;;
14472;SDS011;7322;50.872;4.386;2024-01-15T12:32:25;2.33;;;0.97;;
14472;SDS011;7322;50.872;4.386;2024-01-15T12:34:58;2.53;;;1.10;;
14472;SDS011;7322;50.872;4.386;2024-01-15T12:37:37;1.47;;;0.90;;
14472;SDS011;7322;50.872;4.386;2024-01-15T12:40:05;4.10;;;1.10;;
14472;SDS011;7322;50.872;4.386;2024-01-15T12:42:52;2.67;;;1.10;;
14472;SDS011;7322;50.872;4.386;2024-01-15T12:45:21;1.47;;;0.90;;
14472;SDS011;7322;50.872;4.386;2024-01-15T12:47:58;3.47;;;0.93;;
14472;SDS011;7322;50.872;4.386;2024-01-15T12:50:39;4.57;;;1.47;;
14472;SDS011;7322;50.872;4.386;2024-01-15T12:53:08;1.87;;;1.10;;
14472;SDS011;7322;50.872;4.386;2024-01-15T12:58:13;2.23;;;1.00;;
14472;SDS011;7322;50.872;4.386;2024-01-15T13:00:42;2.63;;;1.20;;
14472;SDS011;7322;50.872;4.386;2024-01-15T13:03:12;2.43;;;1.03;;
14472;SDS011;7322;50.872;4.386;2024-01-15T13:05:39;2.90;;;1.20;;
14472;SDS011;7322;50.872;4.386;2024-01-15T13:08:07;1.80;;;1.10;;
14472;SDS011;7322;50.872;4.386;2024-01-15T13:10:34;2.57;;;0.90;;
14472;SDS011;7322;50.872;4.386;2024-01-15T13:13:11;3.37;;;1.30;;
14472;SDS011;7322;50.872;4.386;2024-01-15T13:15:39;2.10;;;1.10;;
14472;SDS011;7322;50.872;4.386;2024-01-15T13:18:09;1.80;;;1.10;;
14472;SDS011;7322;50.872;4.386;2024-01-15T13:23:14;2.53;;;1.10;;
14472;SDS011;7322;50.872;4.386;2024-01-15T13:25:41;1.60;;;1.13;;
14472;SDS011;7322;50.872;4.386;2024-01-15T13:31:08;2.33;;;1.30;;
14472;SDS011;7322;50.872;4.386;2024-01-15T13:33:39;1.93;;;1.20;;
14472;SDS011;7322;50.872;4.386;2024-01-15T13:36:07;2.07;;;0.70;;
14472;SDS011;7322;50.872;4.386;2024-01-15T13:38:37;1.60;;;1.00;;
14472;SDS011;7322;50.872;4.386;2024-01-15T13:41:04;2.27;;;1.10;;
14472;SDS011;7322;50.872;4.386;2024-01-15T13:43:33;2.43;;;1.10;;
14472;SDS011;7322;50.872;4.386;2024-01-15T13:46:03;2.63;;;1.20;;
14472;SDS011;7322;50.872;4.386;2024-01-15T13:48:31;1.50;;;0.80;;
14472;SDS011;7322;50.872;4.386;2024-01-15T13:51:04;2.17;;;1.20;;
14472;SDS011;7322;50.872;4.386;2024-01-15T13:53:33;1.57;;;1.10;;
14472;SDS011;7322;50.872;4.386;2024-01-15T14:01:36;1.90;;;1.13;;
14472;SDS011;7322;50.872;4.386;2024-01-15T14:07:12;2.10;;;1.10;;
14472;SDS011;7322;50.872;4.386;2024-01-15T14:09:50;2.33;;;1.10;;
14472;SDS011;7322;50.872;4.386;2024-01-15T14:12:24;2.50;;;1.17;;
14472;SDS011;7322;50.872;4.386;2024-01-15T14:14:52;1.87;;;1.07;;
14472;SDS011;7322;50.872;4.386;2024-01-15T14:17:19;1.30;;;1.10;;
14472;SDS011;7322;50.872;4.386;2024-01-15T14:19:52;1.50;;;0.83;;
14472;SDS011;7322;50.872;4.386;2024-01-15T14:22:19;2.43;;;1.10;;
14472;SDS011;7322;50.872;4.386;2024-01-15T14:24:46;1.77;;;1.00;;
14472;SDS011;7322;50.872;4.386;2024-01-15T14:27:27;4.17;;;0.90;;
14472;SDS011;7322;50.872;4.386;2024-01-15T14:29:54;2.43;;;0.90;;
14472;SDS011;7322;50.872;4.386;2024-01-15T14:32:23;2.47;;;1.00;;
14472;SDS011;7322;50.872;4.386;2024-01-15T14:34:52;1.53;;;0.90;;
14472;SDS011;7322;50.872;4.386;2024-01-15T14:37:21;1.90;;;1.23;;
14472;SDS011;7322;50.872;4.386;2024-01-15T14:39:50;1.30;;;0.90;;
14472;SDS011;7322;50.872;4.386;2024-01-15T14:42:17;2.73;;;1.10;;
14472;SDS011;7322;50.872;4.386;2024-01-15T14:44:48;1.20;;;1.00;;
14472;SDS011;7322;50.872;4.386;2024-01-15T14:47:31;2.47;;;0.80;;
14472;SDS011;7322;50.872;4.386;2024-01-15T14:49:58;3.07;;;0.90;;
14472;SDS011;7322;50.872;4.386;2024-01-15T14:52:33;2.37;;;1.07;;
14472;SDS011;7322;50.872;4.386;2024-01-15T14:55:02;2.03;;;0.90;;
14472;SDS011;7322;50.872;4.386;2024-01-15T14:57:39;1.07;;;0.70;;
14472;SDS011;7322;50.872;4.386;2024-01-15T15:00:08;2.13;;;1.00;;
14472;SDS011;7322;50.872;4.386;2024-01-15T15:02:47;2.60;;;0.93;;
14472;SDS011;7322;50.872;4.386;2024-01-15T15:07:46;1.70;;;0.90;;
14472;SDS011;7322;50.872;4.386;2024-01-15T15:10:13;1.27;;;0.70;;
14472;SDS011;7322;50.872;4.386;2024-01-15T15:12:44;1.70;;;0.93;;
14472;SDS011;7322;50.872;4.386;2024-01-15T15:15:12;1.87;;;0.90;;
14472;SDS011;7322;50.872;4.386;2024-01-15T15:17:41;0.97;;;0.70;;
14472;SDS011;7322;50.872;4.386;2024-01-15T15:20:09;1.00;;;0.73;;
14472;SDS011;7322;50.872;4.386;2024-01-15T15:22:39;1.97;;;0.97;;
14472;SDS011;7322;50.872;4.386;2024-01-15T15:25:12;1.10;;;0.70;;
14472;SDS011;7322;50.872;4.386;2024-01-15T15:27:39;2.13;;;1.00;;
14472;SDS011;7322;50.872;4.386;2024-01-15T15:30:08;1.73;;;0.93;;
14472;SDS011;7322;50.872;4.386;2024-01-15T15:35:14;2.47;;;0.83;;
14472;SDS011;7322;50.872;4.386;2024-01-15T15:37:57;1.57;;;1.03;;
14472;SDS011;7322;50.872;4.386;2024-01-15T15:40:28;1.60;;;0.87;;
14472;SDS011;7322;50.872;4.386;2024-01-15T15:42:55;0.90;;;0.70;;
14472;SDS011;7322;50.872;4.386;2024-01-15T15:45:23;1.27;;;0.80;;
14472;SDS011;7322;50.872;4.386;2024-01-15T15:48:01;1.00;;;0.80;;
14472;SDS011;7322;50.872;4.386;2024-01-15T15:53:32;2.50;;;0.90;;
14472;SDS011;7322;50.872;4.386;2024-01-15T15:56:01;2.03;;;0.83;;
14472;SDS011;7322;50.872;4.386;2024-01-15T15:58:29;1.00;;;0.73;;
14472;SDS011;7322;50.872;4.386;2024-01-15T16:03:30;1.00;;;0.60;;
14472;SDS011;7322;50.872;4.386;2024-01-15T16:05:57;0.97;;;0.70;;
14472;SDS011;7322;50.872;4.386;2024-01-15T16:08:25;1.63;;;0.80;;
14472;SDS011;7322;50.872;4.386;2024-01-15T16:10:52;1.03;;;0.73;;
14472;SDS011;7322;50.872;4.386;2024-01-15T16:13:20;0.67;;;0.67;;
14472;SDS011;7322;50.872;4.386;2024-01-15T16:15:47;1.20;;;0.80;;
14472;SDS011;7322;50.872;4.386;2024-01-15T16:18:14;1.07;;;0.67;;
14472;SDS011;7322;50.872;4.386;2024-01-15T16:20:43;1.70;;;0.90;;
14472;SDS011;7322;50.872;4.386;2024-01-15T16:23:09;2.90;;;0.83;;
14472;SDS011;7322;50.872;4.386;2024-01-15T16:25:39;1.77;;;0.83;;